createdAt,value
2023-11-13T00:00:21.203Z,3.14
2023-11-13T00:03:23.689Z,3.21
2023-11-13T00:06:26.473Z,3.31
2023-11-13T00:09:28.691Z,3.31
2023-11-13T00:12:30.986Z,3.36
2023-11-13T00:15:33.336Z,3.34
2023-11-13T00:18:35.661Z,3.34
2023-11-13T00:21:37.941Z,3.33
2023-11-13T00:24:40.393Z,3.39
2023-11-13T00:27:42.662Z,3.32
2023-11-13T00:30:44.931Z,3.29
2023-11-13T00:33:50.255Z,3.37
2023-11-13T00:36:52.886Z,3.41
2023-11-13T00:39:55.113Z,3.46
2023-11-13T00:42:57.400Z,3.51
2023-11-13T00:45:59.727Z,3.57
2023-11-13T00:49:02.079Z,3.57
2023-11-13T00:52:04.908Z,3.48
2023-11-13T00:55:07.765Z,3.58
2023-11-13T00:58:10.159Z,3.46
2023-11-13T01:01:15.116Z,3.54
2023-11-13T01:04:17.485Z,3.45
2023-11-13T01:07:19.778Z,3.39
2023-11-13T01:10:22.412Z,3.28
2023-11-13T01:13:24.805Z,3.24
2023-11-13T01:16:27.206Z,3.22
2023-11-13T01:19:32.001Z,3.19
2023-11-13T01:22:34.356Z,3.07
2023-11-13T01:25:36.580Z,2.98
2023-11-13T01:28:38.835Z,2.88
2023-11-13T01:31:41.009Z,2.87
2023-11-13T01:34:43.542Z,2.85
2023-11-13T01:37:47.175Z,2.86
2023-11-13T01:40:52.658Z,2.82
2023-11-13T01:43:54.866Z,2.81
2023-11-13T01:46:57.192Z,2.87
2023-11-13T01:49:59.925Z,2.84
2023-11-13T01:53:03.015Z,2.89
2023-11-13T01:56:05.717Z,2.87
2023-11-13T01:59:08.278Z,2.93
2023-11-13T02:02:10.747Z,2.92
2023-11-13T02:05:13.914Z,3.02
2023-11-13T02:08:16.144Z,3.04
2023-11-13T02:11:19.146Z,2.97
2023-11-13T02:14:22.002Z,2.93
2023-11-13T02:17:24.183Z,2.99
2023-11-13T02:20:26.456Z,3.02
2023-11-13T02:23:28.665Z,3.07
2023-11-13T02:26:30.922Z,3.06
2023-11-13T02:29:33.158Z,3.11
2023-11-13T02:32:35.622Z,3.17
2023-11-13T02:35:37.798Z,3.23
2023-11-13T02:38:39.988Z,3.24
2023-11-13T02:41:42.164Z,3.19
2023-11-13T02:44:44.442Z,3.21
2023-11-13T02:47:46.687Z,3.26
2023-11-13T02:50:51.672Z,3.28
2023-11-13T02:53:56.106Z,3.36
2023-11-13T02:56:58.291Z,3.44
2023-11-13T03:00:00.528Z,3.39
2023-11-13T03:03:02.864Z,3.31
2023-11-13T03:06:05.568Z,3.22
2023-11-13T03:09:07.755Z,2.96
2023-11-13T03:12:10.338Z,2.82
2023-11-13T03:15:12.540Z,2.67
2023-11-13T03:18:16.225Z,2.55
2023-11-13T03:21:18.458Z,2.61
2023-11-13T03:24:20.641Z,2.72
2023-11-13T03:27:22.875Z,2.84
2023-11-13T03:30:25.086Z,2.64
2023-11-13T03:33:27.523Z,2.72
2023-11-13T03:36:29.728Z,2.82
2023-11-13T03:39:31.943Z,2.84
2023-11-13T03:42:34.228Z,2.77
2023-11-13T03:45:36.447Z,2.75
2023-11-13T03:48:38.676Z,2.72
2023-11-13T03:51:40.851Z,2.78
2023-11-13T03:54:43.028Z,2.75
2023-11-13T03:57:45.258Z,2.73
2023-11-13T04:00:47.625Z,2.80
2023-11-13T04:03:49.961Z,2.85
2023-11-13T04:06:52.171Z,2.85
2023-11-13T04:09:54.419Z,2.91
2023-11-13T04:12:56.693Z,3.00
2023-11-13T04:16:01.976Z,3.06
2023-11-13T04:19:04.821Z,3.03
2023-11-13T04:22:07.877Z,3.15
2023-11-13T04:25:10.666Z,3.16
2023-11-13T04:28:15.714Z,2.95
2023-11-13T04:31:18.033Z,2.92
2023-11-13T04:34:20.303Z,3.09
2023-11-13T04:37:22.550Z,3.07
2023-11-13T04:40:26.037Z,3.05
2023-11-13T04:43:28.408Z,3.17
2023-11-13T04:46:30.732Z,3.33
2023-11-13T04:49:33.344Z,3.40
2023-11-13T04:52:35.605Z,3.35
2023-11-13T04:55:38.672Z,3.39
2023-11-13T04:58:41.030Z,3.50
2023-11-13T05:01:43.429Z,3.60
2023-11-13T05:04:46.718Z,3.72
2023-11-13T05:07:49.023Z,3.79
2023-11-13T05:10:52.092Z,3.87
2023-11-13T05:13:54.767Z,3.86
2023-11-13T05:16:57.648Z,4.00
2023-11-13T05:20:01.561Z,4.03
2023-11-13T05:23:03.756Z,4.10
2023-11-13T05:26:06.226Z,4.18
2023-11-13T05:29:09.113Z,4.21
2023-11-13T05:32:11.462Z,4.29
2023-11-13T05:35:13.753Z,4.39
2023-11-13T05:38:15.952Z,4.32
2023-11-13T05:41:18.208Z,4.44
2023-11-13T05:44:20.415Z,4.47
2023-11-13T05:47:22.750Z,4.68
2023-11-13T05:50:25.299Z,4.69
2023-11-13T05:53:28.066Z,4.76
2023-11-13T05:56:30.286Z,4.73
2023-11-13T05:59:32.511Z,4.72
2023-11-13T06:02:34.846Z,4.68
2023-11-13T06:05:37.209Z,4.70
2023-11-13T06:08:39.432Z,4.57
2023-11-13T06:11:41.911Z,4.51
2023-11-13T06:14:44.915Z,4.51
2023-11-13T06:17:47.470Z,4.49
2023-11-13T06:20:50.094Z,4.40
2023-11-13T06:23:52.371Z,4.45
2023-11-13T06:26:55.158Z,4.41
2023-11-13T06:29:57.470Z,4.55
2023-11-13T06:32:59.737Z,4.55
2023-11-13T06:36:03.661Z,4.57
2023-11-13T06:39:08.089Z,4.51
2023-11-13T06:42:10.633Z,4.62
2023-11-13T06:45:13.305Z,4.64
2023-11-13T06:48:15.706Z,4.76
2023-11-13T06:51:18.172Z,4.96
2023-11-13T06:54:21.410Z,5.05
2023-11-13T06:57:26.152Z,5.37
2023-11-13T07:00:28.468Z,5.48
2023-11-13T07:03:31.045Z,5.52
2023-11-13T07:06:33.237Z,5.54
2023-11-13T07:09:35.515Z,5.52
2023-11-13T07:12:38.685Z,5.28
2023-11-13T07:15:41.349Z,5.20
2023-11-13T07:18:44.171Z,5.32
2023-11-13T07:21:46.401Z,5.35
2023-11-13T07:24:48.617Z,5.28
2023-11-13T07:27:50.827Z,5.08
2023-11-13T07:30:53.052Z,4.86
2023-11-13T07:33:56.038Z,5.07
2023-11-13T07:36:58.310Z,5.01
2023-11-13T07:40:00.771Z,4.88
2023-11-13T07:43:04.191Z,4.84
2023-11-13T07:46:08.954Z,4.93
2023-11-13T07:49:12.748Z,4.94
2023-11-13T07:52:16.400Z,4.87
2023-11-13T07:55:18.925Z,4.79
2023-11-13T07:58:21.290Z,4.86
2023-11-13T08:01:25.735Z,5.13
2023-11-13T08:04:28.092Z,5.39
2023-11-13T08:07:30.902Z,5.41
2023-11-13T08:10:33.566Z,5.52
2023-11-13T08:13:36.445Z,5.50
2023-11-13T08:16:38.892Z,5.96
2023-11-13T08:19:43.065Z,6.00
2023-11-13T08:22:49.024Z,6.16
2023-11-13T08:25:52.250Z,6.24
2023-11-13T08:28:55.734Z,6.36
2023-11-13T08:31:57.987Z,6.37
2023-11-13T08:35:00.268Z,6.32
2023-11-13T08:38:03.579Z,6.22
2023-11-13T08:41:06.030Z,6.26
2023-11-13T08:44:08.675Z,6.03
2023-11-13T08:47:11.508Z,6.10
2023-11-13T08:50:14.235Z,6.05
2023-11-13T08:53:16.475Z,6.14
2023-11-13T08:56:18.778Z,6.13
2023-11-13T08:59:21.225Z,6.23
2023-11-13T09:02:27.147Z,6.20
2023-11-13T09:05:29.721Z,6.30
2023-11-13T09:08:32.726Z,6.25
2023-11-13T09:11:34.905Z,6.36
2023-11-13T09:14:37.102Z,6.40
2023-11-13T09:17:46.931Z,6.61
2023-11-13T09:20:49.507Z,6.59
2023-11-13T09:23:51.749Z,6.83
2023-11-13T09:26:53.961Z,6.89
2023-11-13T09:29:56.135Z,7.00
2023-11-13T09:32:58.693Z,6.95
2023-11-13T11:22:15.202Z,8.52
2023-11-13T11:25:39.975Z,8.52
2023-11-13T11:28:49.678Z,8.07
2023-11-13T11:32:15.416Z,8.12
2023-11-13T11:35:43.882Z,8.24
2023-11-13T11:38:46.190Z,8.20
2023-11-13T11:41:55.953Z,8.40
2023-11-13T11:45:08.316Z,8.35
2023-11-13T11:48:13.218Z,8.41
2023-11-13T11:51:22.938Z,8.38
2023-11-13T11:54:27.298Z,8.44
2023-11-13T11:57:29.591Z,8.44
2023-11-13T12:00:53.793Z,8.47
2023-11-13T12:03:56.204Z,8.57
2023-11-13T12:07:02.575Z,8.57
2023-11-13T12:10:43.841Z,8.29
2023-11-13T12:13:46.941Z,8.38
2023-11-13T12:16:52.649Z,8.28
2023-11-13T12:20:03.585Z,8.44
2023-11-13T12:23:17.059Z,8.47
2023-11-13T12:26:19.976Z,8.49
2023-11-13T12:29:23.940Z,8.49
2023-11-13T12:32:28.821Z,8.43
2023-11-13T12:35:36.677Z,8.38
2023-11-13T12:38:47.662Z,8.49
2023-11-13T12:41:54.102Z,8.61
2023-11-13T12:45:07.274Z,8.71
2023-11-13T12:48:15.159Z,8.64
2023-11-13T12:51:17.884Z,8.52
2023-11-13T12:54:21.470Z,8.38
2023-11-13T12:57:26.142Z,8.27
2023-11-13T13:00:31.363Z,8.33
2023-11-13T13:03:34.046Z,8.31
2023-11-13T13:06:40.031Z,8.42
2023-11-13T13:09:42.459Z,8.49
2023-11-13T13:12:49.811Z,8.56
2023-11-13T13:15:52.070Z,8.55
2023-11-13T13:18:54.427Z,8.58
2023-11-13T13:21:56.721Z,8.61
2023-11-13T13:24:58.967Z,8.65
2023-11-13T13:28:04.392Z,8.61
2023-11-13T13:31:07.158Z,8.65
2023-11-13T13:34:09.834Z,8.66
2023-11-13T13:37:13.141Z,8.80
2023-11-13T13:40:18.229Z,8.79
2023-11-13T13:43:20.710Z,8.66
2023-11-13T13:46:23.601Z,8.52
2023-11-13T13:49:27.099Z,8.53
2023-11-13T13:52:31.553Z,8.39
2023-11-13T13:55:35.003Z,8.31
2023-11-13T13:58:38.936Z,8.29
2023-11-13T14:01:41.720Z,8.21
2023-11-13T14:04:44.109Z,8.05
2023-11-13T14:07:48.124Z,8.19
2023-11-13T14:10:52.763Z,8.16
2023-11-13T14:13:57.711Z,8.19
2023-11-13T14:17:00.042Z,8.16
2023-11-13T14:20:02.368Z,8.13
2023-11-13T14:23:04.724Z,8.21
2023-11-13T14:26:07.409Z,8.17
2023-11-13T14:29:13.406Z,8.22
2023-11-13T14:32:16.132Z,8.15
2023-11-13T14:35:19.724Z,8.02
2023-11-13T14:38:21.974Z,8.16
2023-11-13T14:41:26.773Z,8.16
2023-11-13T14:44:30.192Z,8.15
2023-11-13T14:47:50.255Z,8.22
2023-11-13T14:50:54.045Z,8.21
2023-11-13T14:53:56.516Z,8.14
2023-11-13T14:56:58.981Z,8.28
2023-11-13T15:00:01.674Z,8.15
2023-11-13T15:03:04.998Z,7.98
2023-11-13T15:06:07.998Z,7.82
2023-11-13T15:09:10.838Z,7.77
2023-11-13T15:12:13.146Z,7.87
2023-11-13T15:15:17.439Z,7.83
2023-11-13T15:18:20.020Z,7.69
2023-11-13T15:21:22.248Z,7.81
2023-11-13T15:24:30.008Z,7.95
2023-11-13T15:27:33.287Z,7.85
2023-11-13T15:30:35.633Z,7.68
2023-11-13T15:33:38.590Z,7.69
2023-11-13T15:36:41.017Z,7.63
2023-11-13T15:39:44.962Z,7.60
2023-11-13T15:42:47.302Z,7.72
2023-11-13T15:45:49.537Z,7.73
2023-11-13T15:48:51.817Z,7.59
2023-11-13T15:51:54.083Z,7.60
2023-11-13T15:54:56.368Z,7.62
2023-11-13T15:57:58.914Z,7.62
2023-11-13T16:01:05.663Z,7.65
2023-11-13T16:04:08.266Z,7.73
2023-11-13T16:07:11.591Z,7.71
2023-11-13T16:10:15.731Z,7.68
2023-11-13T16:13:20.504Z,7.66
2023-11-13T16:16:23.232Z,7.60
2023-11-13T16:19:25.748Z,7.64
2023-11-13T16:22:28.153Z,7.57
2023-11-13T16:25:31.044Z,7.54
2023-11-13T16:28:34.066Z,7.56
2023-11-13T16:31:36.854Z,7.59
2023-11-13T16:34:40.051Z,7.66
2023-11-13T16:37:42.397Z,7.63
2023-11-13T16:40:45.267Z,7.59
2023-11-13T16:43:47.479Z,7.54
2023-11-13T16:46:49.890Z,7.63
2023-11-13T16:50:17.405Z,7.59
2023-11-13T16:53:20.532Z,7.58
2023-11-13T16:56:23.258Z,7.49
2023-11-13T16:59:30.725Z,7.50
2023-11-13T17:02:34.747Z,7.68
2023-11-13T17:05:39.078Z,7.70
2023-11-13T17:08:41.414Z,7.67
2023-11-13T17:11:45.206Z,7.61
2023-11-13T17:14:47.597Z,7.55
2023-11-13T17:17:49.930Z,7.43
2023-11-13T17:20:55.543Z,7.41
2023-11-13T17:23:58.592Z,7.36
2023-11-13T17:27:00.890Z,7.24
2023-11-13T17:30:07.998Z,7.28
2023-11-13T17:33:10.462Z,7.29
2023-11-13T17:36:12.770Z,7.26
2023-11-13T17:39:15.754Z,7.26
2023-11-13T17:42:18.050Z,7.27
2023-11-13T17:45:21.019Z,7.34
2023-11-13T17:48:23.438Z,7.34
2023-11-13T17:51:29.012Z,7.34
2023-11-13T17:54:31.444Z,7.39
2023-11-13T17:57:34.352Z,7.31
2023-11-13T18:00:37.701Z,7.35
2023-11-13T18:03:40.559Z,7.30
2023-11-13T18:06:44.471Z,7.38
2023-11-13T18:09:48.211Z,7.31
2023-11-13T18:12:51.104Z,7.27
2023-11-13T18:15:53.458Z,7.30
2023-11-13T18:18:55.823Z,7.34
2023-11-13T18:21:59.627Z,7.37
2023-11-13T18:25:02.411Z,7.52
2023-11-13T18:28:04.857Z,7.54
2023-11-13T18:31:08.446Z,7.63
2023-11-13T18:34:13.917Z,7.69
2023-11-13T18:37:16.863Z,7.65
2023-11-13T18:40:19.450Z,7.60
2023-11-13T18:43:22.665Z,7.53
2023-11-13T18:46:45.101Z,7.51
2023-11-13T18:49:48.904Z,7.53
2023-11-13T18:52:51.378Z,7.44
2023-11-13T18:55:58.502Z,7.46
2023-11-13T18:59:04.550Z,7.44
2023-11-13T19:02:13.626Z,7.43
2023-11-13T19:05:18.708Z,7.53
2023-11-13T19:08:21.006Z,7.38
2023-11-13T19:11:23.270Z,7.32
2023-11-13T19:14:29.528Z,7.40
2023-11-13T19:17:35.022Z,7.21
2023-11-13T19:20:58.144Z,7.26
2023-11-13T19:24:02.698Z,7.19
2023-11-13T19:27:05.074Z,7.24
2023-11-13T19:30:10.198Z,7.25
2023-11-13T19:33:12.938Z,7.18
2023-11-13T19:36:24.300Z,7.22
2023-11-13T19:43:31.405Z,7.15
2023-11-13T19:46:34.403Z,7.09
2023-11-13T19:49:37.310Z,7.16
2023-11-13T19:52:47.183Z,7.23
2023-11-13T19:55:52.889Z,7.27
2023-11-13T19:58:55.789Z,7.20
2023-11-13T20:02:00.331Z,7.19
2023-11-13T20:05:02.832Z,7.28
2023-11-13T20:08:06.281Z,7.26
2023-11-13T20:11:10.617Z,7.26
2023-11-13T20:14:12.942Z,7.44
2023-11-13T20:17:15.309Z,7.76
2023-11-13T20:20:20.501Z,7.67
2023-11-13T20:23:22.814Z,7.71
2023-11-13T20:26:25.349Z,7.74
2023-11-13T20:29:28.213Z,7.73
2023-11-13T20:32:30.829Z,7.83
2023-11-13T20:35:53.901Z,7.71
2023-11-13T20:38:57.226Z,7.61
2023-11-13T20:42:00.794Z,7.57
2023-11-13T20:45:05.788Z,7.46
2023-11-13T20:48:09.663Z,7.37
2023-11-13T20:51:12.526Z,7.49
2023-11-13T20:54:15.689Z,7.50
2023-11-13T20:57:18.519Z,7.38
2023-11-13T21:00:21.529Z,7.49
2023-11-13T21:03:47.735Z,7.67
2023-11-13T21:06:51.112Z,7.66
2023-11-13T21:09:53.599Z,7.66
2023-11-13T21:12:58.069Z,7.62
2023-11-13T21:16:01.128Z,7.67
2023-11-13T21:19:03.429Z,7.51
2023-11-13T21:22:05.970Z,7.48
2023-11-13T21:25:10.554Z,7.49
2023-11-13T21:28:12.961Z,7.48
2023-11-13T21:31:17.178Z,7.60
2023-11-13T21:34:21.919Z,7.63
2023-11-13T21:37:25.153Z,7.58
2023-11-13T21:40:27.483Z,7.63
2023-11-13T21:43:31.416Z,7.55
2023-11-13T21:46:34.277Z,7.70
2023-11-13T21:49:36.646Z,7.86
2023-11-13T21:52:39.444Z,7.74
2023-11-13T21:55:41.951Z,7.71
2023-11-13T21:58:44.277Z,7.64
2023-11-13T22:01:47.407Z,7.53
2023-11-13T22:04:50.430Z,7.42
2023-11-13T22:07:53.442Z,7.54
2023-11-13T22:11:00.349Z,7.49
2023-11-13T22:14:04.253Z,7.37
2023-11-13T22:17:08.613Z,7.39
2023-11-13T22:20:49.256Z,7.41
2023-11-13T22:24:11.870Z,7.56
2023-11-13T22:27:43.030Z,7.48
2023-11-13T22:31:07.352Z,7.72
2023-11-13T22:34:29.348Z,7.53
2023-11-13T22:37:31.622Z,7.61
2023-11-13T22:40:33.946Z,7.67
2023-11-13T22:43:36.258Z,7.63
2023-11-13T22:46:38.550Z,7.47
2023-11-13T22:49:41.831Z,7.31
2023-11-13T22:52:45.342Z,7.29
2023-11-13T22:55:47.628Z,7.18
2023-11-13T22:58:53.221Z,7.21
2023-11-13T23:01:55.880Z,7.16
2023-11-13T23:05:01.418Z,7.15
2023-11-13T23:08:05.500Z,7.24
2023-11-13T23:11:08.306Z,7.35
2023-11-13T23:14:10.536Z,7.39
2023-11-13T23:17:12.852Z,7.40
2023-11-13T23:20:15.564Z,7.39
2023-11-13T23:23:17.781Z,7.54
2023-11-13T23:26:21.025Z,7.44
2023-11-13T23:29:23.280Z,7.39
2023-11-13T23:32:25.576Z,7.36
2023-11-13T23:35:27.996Z,7.31
2023-11-13T23:38:30.189Z,7.37
2023-11-13T23:41:32.483Z,7.34
2023-11-13T23:44:34.670Z,7.34
2023-11-13T23:47:37.566Z,7.26
2023-11-13T23:50:41.822Z,7.40
2023-11-13T23:53:44.052Z,7.46
2023-11-13T23:56:46.275Z,7.47
2023-11-13T23:59:48.530Z,7.57
